world map with KOS marked

KOS - Airport

This information may not be accurate or current and is not valid for navigation or flight planning. No warranty of fitness for any purpose is made or implied.

flag of Cambodia

Donate via PayPal

Additional information is available on the NEW Great Circle Mapper

Location
City:  Sihanoukville, Sihanoukville, Cambodia
Near (Alt.):Kompong Som
Name:Sihanoukville International Airport
ICAO / IATA:VDSV / KOS

Details
Type:Airport (Aerodrome, Airfield)
Latitude:10°34'47"N (10.579686)
Longitude:103°38'13"E (103.636828)
Datum:WGS 1984
Elevation:33 ft (10 m)
Runways:1
Longest:4251 × 112 ft (1296 × 34 m)

Time
Timezone:UTC+7 (DST+9)
Local Time:

Weather
METAR:VDSV  041400Z VRB02KT 9000 FEW017 28/23 Q1014
TAF:VDSV  041100Z 0412/0506 21009KT 9999 SCT017

Related Locations
Nearby:
Farthest:SPVI: 12442 mi / 20024 km
Vicco [Vicco Airport], PAS, PE

Find:

   beyond  
but within

Other Information
Maps:
Sources:

  


 


Great Circle Mapper   Great Circle Mapper
Great Circle Mapper FAQ   Great Circle Mapper FAQ
  Karl's Home Page
KLSē   KLSē Home
   GC on Facebook
Airlines of the World   Airlines of the World
Donate via PayPal


Copyright © 2004-2019, Karl L. Swartz. All rights reserved.
All trademarks mentioned herein belong to their respective owners.

Please see credits for attribution and copyright information.

Karl Swartz <karl@kls2.com>
  Powered by FreeBSD
Valid HTML 4.01!
Labeled with ICRA
hCard Microformat
Geo Microformat